Terminal Aerodrome Forecast
Issued by NWS

Home | Current Version | Previous Version | Text Only | Print | Product List | Glossary On
Versions: 1 2 3 4 5 6 7 8 9 10 11 12
000
FTUS44 KMAF 181100
TAFINK
TAF
KINK 181120Z 1812/1912 11006KT P6SM OVC100
      TEMPO 1812/1816 VRB15G25KT 6SM SHRA
     FM181600 10008KT P6SM SCT035 BKN130
     FM190100 11010KT P6SM OVC035=

USA.gov is the U.S. government's official web portal to all federal, state and local government web resources and services.